createdAt,value
2022-12-11T00:01:09.763Z,14.57
2022-12-11T00:03:38.238Z,16.43
2022-12-11T00:06:07.733Z,15.43
2022-12-11T00:08:36.198Z,18.93
2022-12-11T00:11:06.266Z,19.07
2022-12-11T00:13:34.639Z,17.70
2022-12-11T00:16:03.471Z,17.00
2022-12-11T00:18:32.770Z,17.30
2022-12-11T00:21:02.651Z,16.80
2022-12-11T00:23:31.475Z,18.33
2022-12-11T00:26:00.007Z,19.90
2022-12-11T00:28:29.857Z,18.53
2022-12-11T00:30:58.258Z,18.60
2022-12-11T00:33:28.357Z,17.20
2022-12-11T00:35:56.773Z,21.13
2022-12-11T00:38:25.266Z,16.70
2022-12-11T00:40:53.787Z,17.23
2022-12-11T00:43:22.242Z,16.23
2022-12-11T00:45:52.164Z,16.70
2022-12-11T00:48:20.659Z,19.17
2022-12-11T00:50:49.174Z,18.07
2022-12-11T00:53:17.605Z,15.60
2022-12-11T00:55:46.100Z,16.47
2022-12-11T00:58:14.772Z,14.13
2022-12-11T01:00:43.659Z,15.67
2022-12-11T01:03:15.113Z,16.43
2022-12-11T01:05:43.591Z,13.47
2022-12-11T01:08:12.116Z,14.13
2022-12-11T01:10:39.741Z,18.80
2022-12-11T01:13:08.573Z,17.77
2022-12-11T01:15:41.755Z,19.97
2022-12-11T01:18:10.890Z,19.47
2022-12-11T01:20:41.140Z,17.10
2022-12-11T01:23:09.546Z,17.87
2022-12-11T01:25:39.216Z,18.37
2022-12-11T01:28:07.969Z,18.20
2022-12-11T01:30:36.653Z,16.37
2022-12-11T01:33:05.629Z,17.47
2022-12-11T01:35:34.321Z,18.27
2022-12-11T01:38:04.249Z,17.67
2022-12-11T01:40:32.776Z,19.73
2022-12-11T01:43:01.163Z,17.43
2022-12-11T01:45:32.035Z,18.07
2022-12-11T01:48:03.629Z,20.27
2022-12-11T01:50:32.887Z,18.47
2022-12-11T01:53:01.438Z,19.23
2022-12-11T01:55:31.327Z,18.83
2022-12-11T01:58:00.299Z,21.33
2022-12-11T02:00:28.745Z,19.63
2022-12-11T02:02:57.204Z,19.33
2022-12-11T02:05:25.665Z,19.70
2022-12-11T02:07:55.785Z,20.37
2022-12-11T02:10:25.802Z,19.07
2022-12-11T02:12:59.277Z,19.23
2022-12-11T02:15:32.480Z,19.87
2022-12-11T02:18:05.134Z,20.00
2022-12-11T02:20:35.926Z,19.13
2022-12-11T02:23:22.041Z,18.93
2022-12-11T02:25:54.173Z,20.23
2022-12-11T02:28:26.458Z,18.90
2022-12-11T02:30:57.382Z,18.40
2022-12-11T02:33:28.941Z,20.27
2022-12-11T02:35:58.106Z,21.40
2022-12-11T02:38:28.796Z,19.70
2022-12-11T02:40:57.904Z,21.10
2022-12-11T02:43:27.863Z,20.40
2022-12-11T02:45:57.348Z,18.60
2022-12-11T02:48:26.066Z,24.00
2022-12-11T02:50:56.199Z,26.23
2022-12-11T02:53:26.103Z,24.97
2022-12-11T02:55:58.862Z,22.20
2022-12-11T02:58:31.398Z,24.87
2022-12-11T03:00:59.990Z,23.20
2022-12-11T03:03:30.713Z,19.80
2022-12-11T03:05:59.177Z,21.93
2022-12-11T03:08:27.713Z,21.70
2022-12-11T03:10:56.189Z,20.43
2022-12-11T03:13:24.814Z,23.17
2022-12-11T03:16:02.540Z,25.53
2022-12-11T03:18:33.203Z,25.43
2022-12-11T03:21:05.868Z,23.17
2022-12-11T03:23:35.894Z,26.00
2022-12-11T03:26:06.321Z,21.37
2022-12-11T03:28:40.147Z,25.90
2022-12-11T03:31:11.379Z,25.77
2022-12-11T03:33:41.410Z,21.20
2022-12-11T03:36:12.363Z,23.07
2022-12-11T03:38:43.880Z,23.07
2022-12-11T03:41:14.375Z,23.30
2022-12-11T03:43:43.335Z,23.43
2022-12-11T03:46:14.444Z,24.60
2022-12-11T03:48:44.291Z,20.50
2022-12-11T03:51:13.088Z,27.73
2022-12-11T03:53:41.745Z,21.30
2022-12-11T03:56:11.827Z,23.30
2022-12-11T03:58:40.283Z,21.77
2022-12-11T04:01:10.815Z,21.33
2022-12-11T04:03:41.036Z,21.23
2022-12-11T04:06:09.727Z,21.77
2022-12-11T04:08:38.228Z,21.47
2022-12-11T04:11:26.574Z,21.27
2022-12-11T04:14:08.897Z,20.73
2022-12-11T04:16:37.556Z,19.97
2022-12-11T04:19:25.741Z,21.93
2022-12-11T04:22:11.910Z,20.40
2022-12-11T04:24:40.418Z,24.80
2022-12-11T04:27:08.959Z,24.57
2022-12-11T04:29:37.362Z,27.60
2022-12-11T04:32:05.894Z,26.40
2022-12-11T04:34:35.716Z,26.80
2022-12-11T04:37:04.308Z,29.70
2022-12-11T04:39:32.659Z,25.13
2022-12-11T04:42:01.151Z,24.77
2022-12-11T04:44:29.536Z,30.70
2022-12-11T04:46:58.096Z,30.07
2022-12-11T04:49:26.619Z,27.77
2022-12-11T04:51:56.447Z,28.47
2022-12-11T04:54:24.903Z,29.83
2022-12-11T04:56:53.548Z,24.50
2022-12-11T04:59:22.297Z,31.87
2022-12-11T05:01:50.912Z,28.47
2022-12-11T05:04:19.427Z,26.67
2022-12-11T05:06:47.944Z,29.50
2022-12-11T05:09:17.784Z,28.10
2022-12-11T05:11:46.394Z,28.57
2022-12-11T05:14:15.411Z,27.57
2022-12-11T05:16:43.883Z,30.40
2022-12-11T05:19:12.372Z,28.37
2022-12-11T05:21:40.855Z,30.17
2022-12-11T05:24:09.507Z,27.23
2022-12-11T05:26:39.459Z,29.70
2022-12-11T05:29:07.907Z,29.60
2022-12-11T05:31:36.545Z,27.87
2022-12-11T05:34:05.031Z,25.87
2022-12-11T05:36:34.608Z,27.83
2022-12-11T05:39:03.365Z,26.83
2022-12-11T05:41:34.390Z,28.07
2022-12-11T05:44:04.147Z,27.33
2022-12-11T05:46:32.878Z,27.33
2022-12-11T05:49:02.185Z,26.20
2022-12-11T05:51:31.052Z,28.93
2022-12-11T05:53:59.828Z,29.23
2022-12-11T05:56:29.499Z,26.90
2022-12-11T05:58:58.091Z,28.30
2022-12-11T06:01:29.634Z,26.67
2022-12-11T06:03:58.740Z,29.67
2022-12-11T06:06:27.826Z,31.60
2022-12-11T06:08:57.493Z,29.97
2022-12-11T06:11:26.491Z,28.97
2022-12-11T06:13:55.021Z,30.23
2022-12-11T06:16:24.646Z,30.10
2022-12-11T06:18:58.004Z,29.87
2022-12-11T06:21:27.518Z,27.77
2022-12-11T06:23:56.817Z,32.87
2022-12-11T06:26:25.823Z,30.00
2022-12-11T06:28:54.497Z,33.83
2022-12-11T06:31:23.172Z,30.40
2022-12-11T06:33:51.794Z,32.40
2022-12-11T06:36:22.159Z,32.63
2022-12-11T06:38:50.863Z,32.93
2022-12-11T06:41:20.166Z,32.47
2022-12-11T06:43:48.879Z,30.47
2022-12-11T06:46:18.278Z,34.17
2022-12-11T06:48:47.197Z,28.50
2022-12-11T06:51:16.905Z,33.60
2022-12-11T06:53:46.675Z,32.20
2022-12-11T06:56:15.956Z,31.70
2022-12-11T06:58:44.999Z,33.20
2022-12-11T07:01:17.973Z,27.67
2022-12-11T07:03:46.712Z,28.63
2022-12-11T07:06:15.440Z,26.10
2022-12-11T07:08:44.144Z,26.57
2022-12-11T07:11:14.939Z,24.33
2022-12-11T07:13:43.493Z,29.57
2022-12-11T07:16:12.443Z,22.50
2022-12-11T07:18:41.474Z,27.97
2022-12-11T07:21:11.265Z,24.87
2022-12-11T07:23:40.152Z,25.43
2022-12-11T07:26:09.120Z,32.17
2022-12-11T07:28:38.985Z,23.87
2022-12-11T07:31:07.872Z,29.50
2022-12-11T07:33:36.359Z,28.17
2022-12-11T07:36:05.151Z,25.73
2022-12-11T07:38:33.777Z,30.77
2022-12-11T07:41:02.814Z,26.33
2022-12-11T07:43:31.495Z,26.37
2022-12-11T07:46:04.104Z,25.97
2022-12-11T07:48:32.656Z,26.03
2022-12-11T07:51:09.568Z,28.33
2022-12-11T07:53:38.143Z,31.53
2022-12-11T07:56:06.950Z,27.07
2022-12-11T07:58:36.027Z,25.90
2022-12-11T08:01:06.270Z,26.30
2022-12-11T08:03:34.743Z,30.80
2022-12-11T08:06:03.296Z,21.10
2022-12-11T08:08:31.800Z,23.97
2022-12-11T08:11:02.591Z,27.90
2022-12-11T08:13:30.970Z,29.80
2022-12-11T08:15:59.367Z,31.13
2022-12-11T08:18:30.422Z,30.83
2022-12-11T08:20:58.802Z,31.33
2022-12-11T08:23:27.245Z,26.23
2022-12-11T08:25:55.772Z,27.00
2022-12-11T08:28:24.818Z,30.27
2022-12-11T08:30:53.416Z,27.03
2022-12-11T08:33:22.000Z,26.17
2022-12-11T08:35:51.859Z,32.93
2022-12-11T08:38:25.233Z,31.23
2022-12-11T08:40:54.163Z,26.53
2022-12-11T08:43:22.586Z,24.47
2022-12-11T08:45:51.090Z,23.83
2022-12-11T08:48:19.572Z,27.87
2022-12-11T08:50:47.967Z,27.03
2022-12-11T08:53:17.787Z,28.67
2022-12-11T08:55:46.262Z,28.73
2022-12-11T08:58:14.696Z,24.73
2022-12-11T09:00:43.108Z,29.33
2022-12-11T09:03:13.114Z,31.33
2022-12-11T09:05:41.737Z,28.47
2022-12-11T09:08:10.155Z,25.93
2022-12-11T09:10:39.998Z,26.13
2022-12-11T09:13:08.549Z,26.60
2022-12-11T09:15:38.210Z,27.20
2022-12-11T09:18:06.719Z,27.10
2022-12-11T09:20:35.189Z,31.37
2022-12-11T09:23:04.385Z,26.93
2022-12-11T09:25:32.855Z,26.80
2022-12-11T09:28:02.572Z,27.93
2022-12-11T09:30:31.063Z,25.07
2022-12-11T09:33:00.014Z,26.40
2022-12-11T09:35:28.479Z,28.17
2022-12-11T09:37:56.905Z,27.87
2022-12-11T09:40:25.356Z,33.20
2022-12-11T09:42:56.153Z,28.07
2022-12-11T09:45:25.950Z,27.37
2022-12-11T09:47:55.337Z,29.00
2022-12-11T09:50:25.264Z,28.37
2022-12-11T09:52:57.707Z,28.70
2022-12-11T09:55:28.510Z,32.27
2022-12-11T09:58:02.108Z,29.87
2022-12-11T10:00:35.330Z,22.83
2022-12-11T10:03:09.510Z,27.17
2022-12-11T10:05:39.931Z,25.67
2022-12-11T10:08:13.422Z,26.87
2022-12-11T10:10:44.204Z,25.60
2022-12-11T10:13:18.595Z,29.10
2022-12-11T10:15:51.333Z,23.53
2022-12-11T10:18:22.930Z,23.60
2022-12-11T10:20:52.821Z,23.70
2022-12-11T10:23:23.042Z,28.10
2022-12-11T10:25:53.130Z,24.50
2022-12-11T10:28:22.173Z,23.53
2022-12-11T10:30:56.846Z,28.23
2022-12-11T10:33:28.425Z,25.90
2022-12-11T10:35:57.908Z,26.50
2022-12-11T10:38:27.565Z,22.97
2022-12-11T10:40:57.440Z,26.00
2022-12-11T10:43:34.238Z,26.17
2022-12-11T10:46:04.092Z,30.10
2022-12-11T10:48:35.189Z,22.80
2022-12-11T10:51:05.005Z,26.60
2022-12-11T10:53:33.908Z,24.70
2022-12-11T10:56:02.491Z,27.33
2022-12-11T10:58:34.010Z,26.90
2022-12-11T11:01:07.485Z,24.30
2022-12-11T11:03:37.163Z,21.17
2022-12-11T11:06:09.365Z,24.47
2022-12-11T11:08:42.536Z,22.77
2022-12-11T11:11:18.014Z,26.03
2022-12-11T11:13:46.440Z,22.55
2022-12-11T11:16:17.829Z,22.20
2022-12-11T11:18:51.297Z,19.47
2022-12-11T11:21:21.252Z,23.50
2022-12-11T11:23:53.330Z,23.03
2022-12-11T11:26:23.188Z,24.07
2022-12-11T11:28:53.045Z,13.05
2022-12-11T11:31:24.329Z,18.55
2022-12-11T11:33:58.367Z,21.63
2022-12-11T11:36:27.562Z,20.23
2022-12-11T11:39:04.682Z,23.87
2022-12-11T11:41:36.067Z,22.20
2022-12-11T11:44:07.058Z,21.50
2022-12-11T11:46:40.529Z,20.03
2022-12-11T11:49:12.375Z,17.10
2022-12-11T11:51:43.419Z,17.43
2022-12-11T11:54:18.767Z,20.27
2022-12-11T11:56:47.811Z,22.97
2022-12-11T11:59:19.191Z,21.60
2022-12-11T12:01:49.001Z,19.47
2022-12-11T12:04:17.869Z,22.47
2022-12-11T12:06:57.812Z,21.63
2022-12-11T12:09:31.410Z,22.07
2022-12-11T12:12:13.270Z,22.13
2022-12-11T12:14:52.886Z,20.73
2022-12-11T12:17:26.585Z,22.70
2022-12-11T12:20:01.911Z,20.43
2022-12-11T12:22:37.878Z,25.38
2022-12-11T12:25:09.338Z,22.27
2022-12-11T12:27:52.173Z,17.87
2022-12-11T12:30:23.368Z,19.03
2022-12-11T12:33:01.052Z,20.23
2022-12-11T12:35:35.827Z,21.97
2022-12-11T12:38:08.106Z,24.30
2022-12-11T12:40:39.357Z,26.57
2022-12-11T12:43:14.519Z,23.30
2022-12-11T12:45:45.803Z,24.10
2022-12-11T12:48:15.623Z,21.27
2022-12-11T12:50:45.445Z,21.63
2022-12-11T12:53:16.100Z,24.57
2022-12-11T12:55:45.526Z,21.97
2022-12-11T12:58:26.430Z,24.20
2022-12-11T13:00:55.736Z,22.23
2022-12-11T13:03:29.183Z,25.37
2022-12-11T13:05:59.632Z,25.63
2022-12-11T13:08:28.797Z,28.37
2022-12-11T13:11:02.727Z,29.77
2022-12-11T13:13:36.201Z,28.83
2022-12-11T13:16:09.643Z,30.10
2022-12-11T13:18:40.275Z,33.03
2022-12-11T13:21:23.563Z,27.47
2022-12-11T13:23:51.957Z,28.27
2022-12-11T13:26:29.636Z,27.27
2022-12-11T13:28:58.246Z,29.10
2022-12-11T13:31:37.070Z,27.17
2022-12-11T13:34:15.297Z,26.97
2022-12-11T13:36:48.239Z,24.37
2022-12-11T13:39:18.866Z,30.37
2022-12-11T13:41:48.673Z,28.00
2022-12-11T13:44:20.232Z,26.63
2022-12-11T13:46:49.764Z,25.13
2022-12-11T13:49:23.191Z,24.67
2022-12-11T13:51:56.112Z,27.60
2022-12-11T13:54:24.549Z,33.33
2022-12-11T13:57:00.825Z,28.17
2022-12-11T13:59:31.101Z,29.73
2022-12-11T14:02:01.345Z,24.83
2022-12-11T14:04:31.670Z,32.97
2022-12-11T14:07:00.544Z,26.80
2022-12-11T14:09:29.740Z,26.03
2022-12-11T14:11:59.284Z,30.30
2022-12-11T14:14:31.394Z,27.23
2022-12-11T14:16:59.805Z,31.20
2022-12-11T14:19:29.351Z,27.67
2022-12-11T14:22:00.177Z,26.63
2022-12-11T14:24:28.654Z,28.93
2022-12-11T14:26:57.409Z,29.77
2022-12-11T14:29:26.988Z,25.47
2022-12-11T14:31:56.060Z,28.43
2022-12-11T14:34:26.724Z,29.40
2022-12-11T14:36:55.979Z,28.13
2022-12-11T14:39:28.850Z,30.23
2022-12-11T14:41:59.775Z,25.23
2022-12-11T14:44:30.055Z,28.43
2022-12-11T14:47:00.463Z,27.30
2022-12-11T14:49:31.030Z,29.53
2022-12-11T14:52:00.221Z,30.00
2022-12-11T14:54:32.733Z,28.57
2022-12-11T14:57:01.860Z,29.00
2022-12-11T14:59:32.218Z,27.10
2022-12-11T15:02:02.147Z,29.40
2022-12-11T15:04:31.955Z,26.87
2022-12-11T15:07:00.786Z,26.30
2022-12-11T15:09:31.861Z,24.57
2022-12-11T15:12:01.186Z,26.47
2022-12-11T15:14:29.660Z,29.83
2022-12-11T15:16:59.004Z,28.93
2022-12-11T15:19:29.342Z,27.60
2022-12-11T15:22:02.959Z,29.13
2022-12-11T15:24:38.250Z,26.90
2022-12-11T15:27:06.972Z,28.93
2022-12-11T15:29:36.945Z,25.40
2022-12-11T15:32:06.621Z,23.60
2022-12-11T15:34:35.872Z,25.80
2022-12-11T15:37:04.265Z,24.97
2022-12-11T15:39:34.076Z,28.93
2022-12-11T15:42:08.734Z,28.50
2022-12-11T15:44:37.150Z,31.67
2022-12-11T15:47:13.204Z,32.03
2022-12-11T15:49:41.640Z,27.17
2022-12-11T15:52:10.073Z,26.77
2022-12-11T15:54:39.844Z,30.10
2022-12-11T15:57:09.431Z,31.37
2022-12-11T15:59:37.868Z,29.27
2022-12-11T16:02:11.167Z,30.30
2022-12-11T16:04:39.559Z,28.50
2022-12-11T16:07:08.582Z,26.30
2022-12-11T16:09:37.010Z,24.90
2022-12-11T16:12:07.168Z,25.97
2022-12-11T16:14:38.144Z,25.93
2022-12-11T16:17:07.104Z,23.83
2022-12-11T16:19:35.957Z,21.00
2022-12-11T16:22:04.618Z,20.37
2022-12-11T16:24:33.277Z,24.20
2022-12-11T16:27:01.639Z,22.37
2022-12-11T16:29:31.440Z,22.63
2022-12-11T16:31:59.844Z,20.50
2022-12-11T16:34:28.404Z,18.60
2022-12-11T16:36:59.199Z,20.80
2022-12-11T16:39:27.680Z,19.17
2022-12-11T16:41:56.080Z,20.27
2022-12-11T16:44:25.365Z,19.73
2022-12-11T16:46:55.289Z,21.47
2022-12-11T16:49:24.001Z,21.13
2022-12-11T16:51:52.551Z,18.70
2022-12-11T16:54:21.045Z,20.07
2022-12-11T16:56:49.394Z,19.93
2022-12-11T16:59:17.746Z,20.40
2022-12-11T17:01:46.254Z,18.50
2022-12-11T17:04:16.169Z,20.50
2022-12-11T17:06:44.581Z,20.10
2022-12-11T17:09:13.007Z,17.47
2022-12-11T17:11:41.457Z,17.17
2022-12-11T17:14:12.508Z,18.50
2022-12-11T17:16:40.891Z,17.80
2022-12-11T17:19:09.328Z,16.83
2022-12-11T17:21:39.221Z,21.23
2022-12-11T17:24:08.028Z,19.80
2022-12-11T17:26:36.533Z,16.73
2022-12-11T17:29:05.364Z,18.27
2022-12-11T17:31:33.788Z,18.13
2022-12-11T17:34:02.256Z,18.57
2022-12-11T17:36:30.625Z,17.60
2022-12-11T17:39:00.403Z,17.90
2022-12-11T17:41:28.799Z,20.87
2022-12-11T17:43:57.381Z,23.67
2022-12-11T17:46:25.793Z,21.47
2022-12-11T17:48:54.260Z,21.43
2022-12-11T17:51:24.534Z,20.83
2022-12-11T17:53:53.099Z,20.80
2022-12-11T17:56:22.869Z,20.10
2022-12-11T17:58:51.341Z,20.87
2022-12-11T18:01:21.176Z,20.67
2022-12-11T18:03:49.666Z,18.00
2022-12-11T18:06:18.676Z,20.03
2022-12-11T18:08:47.057Z,18.30
2022-12-11T18:11:17.165Z,18.33
2022-12-11T18:13:47.346Z,17.73
2022-12-11T18:16:17.750Z,19.17
2022-12-11T18:18:47.003Z,16.07
2022-12-11T18:21:15.726Z,18.03
2022-12-11T18:23:44.427Z,18.97
2022-12-11T18:26:14.495Z,20.50
2022-12-11T18:28:43.498Z,21.03
2022-12-11T18:31:13.624Z,19.97
2022-12-11T18:33:42.680Z,20.37
2022-12-11T18:36:11.583Z,19.83
2022-12-11T18:38:40.522Z,17.77
2022-12-11T18:41:09.631Z,19.63
2022-12-11T18:43:38.042Z,23.87
2022-12-11T18:46:07.607Z,21.13
2022-12-11T18:48:40.451Z,21.97
2022-12-11T18:51:09.573Z,19.83
2022-12-11T18:53:39.255Z,18.63
2022-12-11T18:56:08.489Z,22.57
2022-12-11T18:58:36.928Z,21.87
2022-12-11T19:01:08.999Z,22.27
2022-12-11T19:03:38.977Z,20.37
2022-12-11T19:06:08.642Z,19.07
2022-12-11T19:08:37.379Z,23.63
2022-12-11T19:11:06.642Z,22.57
2022-12-11T19:13:35.257Z,20.50
2022-12-11T19:16:03.732Z,18.30
2022-12-11T19:18:32.274Z,20.47
2022-12-11T19:21:09.083Z,18.67
2022-12-11T19:23:37.832Z,19.60
2022-12-11T19:26:07.604Z,19.20
2022-12-11T19:28:36.020Z,18.43
2022-12-11T19:31:04.432Z,17.77
2022-12-11T19:33:32.889Z,21.73
2022-12-11T19:36:06.925Z,18.07
2022-12-11T19:38:35.511Z,17.63
2022-12-11T19:41:06.748Z,17.77
2022-12-11T19:43:35.346Z,17.60
2022-12-11T19:46:04.013Z,20.30
2022-12-11T19:48:32.796Z,20.80
2022-12-11T19:51:07.040Z,17.90
2022-12-11T19:53:35.766Z,17.73
2022-12-11T19:56:04.933Z,16.17
2022-12-11T19:58:33.428Z,20.30
2022-12-11T20:01:02.061Z,19.07
2022-12-11T20:03:30.724Z,14.73
2022-12-11T20:06:01.842Z,19.43
2022-12-11T20:08:46.997Z,17.57
2022-12-11T20:11:18.730Z,17.17
2022-12-11T20:13:47.520Z,16.50
2022-12-11T20:16:16.472Z,18.67
2022-12-11T20:18:45.163Z,16.10
2022-12-11T20:21:14.406Z,17.63
2022-12-11T20:23:44.755Z,17.23
2022-12-11T20:26:14.418Z,16.70
2022-12-11T20:28:43.124Z,21.30
2022-12-11T20:31:19.487Z,18.30
2022-12-11T20:33:49.695Z,19.67
2022-12-11T20:36:18.899Z,16.93
2022-12-11T20:38:48.749Z,16.60
2022-12-11T20:41:18.857Z,18.27
2022-12-11T20:43:48.944Z,15.10
2022-12-11T20:46:18.417Z,19.97
2022-12-11T20:48:47.459Z,18.47
2022-12-11T20:51:20.864Z,15.67
2022-12-11T20:53:58.313Z,15.03
2022-12-11T20:56:27.870Z,17.67
2022-12-11T20:58:56.622Z,22.97
2022-12-11T21:01:26.242Z,20.00
2022-12-11T21:03:54.726Z,21.10
2022-12-11T21:06:25.357Z,16.63
2022-12-11T21:08:55.577Z,18.33
2022-12-11T21:11:24.236Z,18.93
2022-12-11T21:13:52.662Z,19.27
2022-12-11T21:16:21.201Z,18.30
2022-12-11T21:18:49.950Z,16.43
2022-12-11T21:21:18.649Z,17.00
2022-12-11T21:23:47.082Z,18.53
2022-12-11T21:26:17.149Z,19.40
2022-12-11T21:28:45.609Z,16.50
2022-12-11T21:31:15.231Z,20.23
2022-12-11T21:33:43.982Z,20.83
2022-12-11T21:36:13.056Z,21.97
2022-12-11T21:38:41.932Z,20.67
2022-12-11T21:41:11.016Z,17.03
2022-12-11T21:44:03.272Z,17.47
2022-12-11T21:46:30.111Z,15.33
2022-12-11T21:48:58.747Z,18.27
2022-12-11T21:51:34.155Z,15.43
2022-12-11T21:54:05.167Z,17.30
2022-12-11T21:56:33.825Z,21.17
2022-12-11T21:59:03.792Z,21.03
2022-12-11T22:01:35.128Z,16.77
2022-12-11T22:04:03.747Z,20.27
2022-12-11T22:06:32.387Z,19.50
2022-12-11T22:09:00.810Z,19.23
2022-12-11T22:11:30.918Z,18.93
2022-12-11T22:13:59.353Z,19.63
2022-12-11T22:16:29.264Z,19.50
2022-12-11T22:18:58.161Z,18.60
2022-12-11T22:21:26.546Z,22.17
2022-12-11T22:23:54.992Z,19.13
2022-12-11T22:26:24.485Z,18.00
2022-12-11T22:28:53.036Z,22.73
2022-12-11T22:31:22.411Z,18.10
2022-12-11T22:33:53.693Z,20.77
2022-12-11T22:36:22.357Z,20.47
2022-12-11T22:38:50.939Z,20.93
2022-12-11T22:41:22.755Z,16.50
2022-12-11T22:43:51.335Z,19.83
2022-12-11T22:46:21.030Z,26.93
2022-12-11T22:48:49.472Z,21.33
2022-12-11T22:51:19.227Z,23.13
2022-12-11T22:53:47.898Z,23.10
2022-12-11T22:56:16.336Z,17.57
2022-12-11T22:58:44.698Z,18.20
2022-12-11T23:01:15.022Z,18.87
2022-12-11T23:03:43.496Z,20.07
2022-12-11T23:06:13.628Z,17.53
2022-12-11T23:08:43.910Z,18.13
2022-12-11T23:11:13.192Z,19.77
2022-12-11T23:13:41.665Z,18.40
2022-12-11T23:16:10.116Z,17.80
2022-12-11T23:18:39.412Z,18.33
2022-12-11T23:21:08.098Z,17.27
2022-12-11T23:23:36.521Z,19.50
2022-12-11T23:26:07.409Z,19.67
2022-12-11T23:28:36.199Z,17.33
2022-12-11T23:31:04.801Z,21.37
2022-12-11T23:33:33.300Z,16.73
2022-12-11T23:36:01.712Z,17.97
2022-12-11T23:38:30.150Z,17.37
2022-12-11T23:41:00.367Z,15.27
2022-12-11T23:43:30.140Z,15.83
2022-12-11T23:45:58.794Z,19.27
2022-12-11T23:48:27.459Z,15.97
2022-12-11T23:50:59.531Z,15.00
2022-12-11T23:53:28.207Z,16.03
2022-12-11T23:55:56.868Z,15.37
2022-12-11T23:58:25.283Z,16.93
